createdAt,value
2022-12-27T00:02:04.105Z,69.80
2022-12-27T00:04:30.980Z,71.00
2022-12-27T00:06:57.783Z,78.00
2022-12-27T00:09:24.741Z,77.00
2022-12-27T00:11:56.331Z,75.50
2022-12-27T00:14:26.904Z,76.75
2022-12-27T00:16:54.275Z,75.50
2022-12-27T00:19:21.154Z,71.60
2022-12-27T00:21:47.944Z,77.75
2022-12-27T00:24:15.827Z,75.00
2022-12-27T00:26:42.676Z,69.40
2022-12-27T00:29:10.844Z,76.00
2022-12-27T00:31:38.162Z,66.20
2022-12-27T00:34:07.468Z,72.25
2022-12-27T00:36:35.059Z,68.00
2022-12-27T00:39:02.354Z,67.80
2022-12-27T00:41:29.376Z,68.20
2022-12-27T00:43:56.299Z,70.00
2022-12-27T00:46:23.236Z,75.00
2022-12-27T00:48:50.037Z,73.75
2022-12-27T00:51:22.153Z,74.25
2022-12-27T00:53:50.573Z,76.50
2022-12-27T00:56:23.116Z,67.60
2022-12-27T00:58:57.802Z,73.50
2022-12-27T01:01:27.467Z,68.40
2022-12-27T01:03:54.700Z,66.00
2022-12-27T01:06:24.135Z,73.50
2022-12-27T01:08:51.047Z,72.50
2022-12-27T01:11:19.034Z,67.40
2022-12-27T01:13:46.669Z,74.00
2022-12-27T01:16:19.634Z,73.50
2022-12-27T01:18:47.902Z,73.00
2022-12-27T01:21:16.955Z,72.25
2022-12-27T01:23:43.871Z,71.75
2022-12-27T01:26:13.861Z,71.75
2022-12-27T01:28:40.750Z,66.40
2022-12-27T01:31:17.181Z,64.80
2022-12-27T01:33:44.435Z,74.75
2022-12-27T01:36:12.931Z,67.00
2022-12-27T01:38:42.846Z,72.75
2022-12-27T01:41:44.909Z,66.00
2022-12-27T01:44:39.667Z,70.00
2022-12-27T01:47:12.466Z,65.20
2022-12-27T01:49:51.715Z,71.25
2022-12-27T01:52:19.074Z,70.75
2022-12-27T01:54:46.752Z,70.75
2022-12-27T01:57:13.686Z,64.00
2022-12-27T01:59:41.936Z,70.50
2022-12-27T02:02:08.936Z,66.40
2022-12-27T02:04:35.953Z,65.80
2022-12-27T02:07:02.856Z,71.00
2022-12-27T02:09:42.589Z,71.00
2022-12-27T02:12:10.719Z,74.25
2022-12-27T02:14:46.755Z,71.00
2022-12-27T02:17:26.608Z,71.00
2022-12-27T02:20:15.979Z,71.00
2022-12-27T02:23:10.556Z,71.00
2022-12-27T02:25:55.798Z,71.50
2022-12-27T02:28:53.640Z,65.20
2022-12-27T02:31:40.613Z,63.60
2022-12-27T02:34:25.366Z,64.20
2022-12-27T02:36:57.096Z,65.00
2022-12-27T02:39:26.586Z,67.00
2022-12-27T02:42:13.886Z,62.60
2022-12-27T02:44:59.507Z,65.20
2022-12-27T02:47:50.072Z,71.00
2022-12-27T02:50:36.099Z,63.40
2022-12-27T02:53:12.817Z,64.00
2022-12-27T02:56:16.579Z,63.80
2022-12-27T02:59:10.799Z,64.00
2022-12-27T03:02:17.668Z,69.75
2022-12-27T03:05:10.651Z,69.20
2022-12-27T03:08:02.128Z,63.60
2022-12-27T03:10:59.458Z,64.40
2022-12-27T03:14:04.712Z,70.20
2022-12-27T03:16:38.022Z,68.80
2022-12-27T03:19:13.037Z,63.60
2022-12-27T03:22:05.439Z,65.20
2022-12-27T03:24:55.958Z,64.80
2022-12-27T03:27:32.943Z,64.00
2022-12-27T03:30:23.278Z,64.00
2022-12-27T03:33:15.578Z,63.40
2022-12-27T03:36:11.562Z,67.20
2022-12-27T03:38:57.744Z,65.40
2022-12-27T03:41:49.098Z,66.40
2022-12-27T03:44:25.831Z,65.20
2022-12-27T03:47:28.502Z,68.80
2022-12-27T03:50:19.572Z,69.00
2022-12-27T03:53:10.286Z,68.00
2022-12-27T03:55:37.928Z,69.20
2022-12-27T03:58:05.468Z,64.60
2022-12-27T04:00:32.270Z,63.20
2022-12-27T04:02:59.244Z,70.60
2022-12-27T04:05:26.186Z,65.20
2022-12-27T04:08:11.794Z,64.60
2022-12-27T04:10:57.427Z,65.60
2022-12-27T04:13:42.968Z,70.80
2022-12-27T04:16:28.636Z,69.80
2022-12-27T04:19:14.222Z,64.00
2022-12-27T04:21:59.995Z,69.20
2022-12-27T04:24:45.530Z,70.40
2022-12-27T04:27:31.010Z,69.60
2022-12-27T04:30:16.608Z,67.00
2022-12-27T04:33:02.141Z,69.20
2022-12-27T04:35:28.928Z,66.00
2022-12-27T04:37:55.760Z,70.00
2022-12-27T04:40:41.321Z,68.60
2022-12-27T04:43:28.344Z,64.40
2022-12-27T04:46:13.973Z,70.20
2022-12-27T04:48:59.730Z,65.20
2022-12-27T04:51:46.216Z,64.20
2022-12-27T04:54:40.200Z,64.60
2022-12-27T04:57:07.247Z,70.00
2022-12-27T04:59:52.502Z,65.60
2022-12-27T05:02:20.233Z,70.80
2022-12-27T05:04:48.688Z,64.40
2022-12-27T05:07:34.717Z,70.00
2022-12-27T05:10:22.917Z,68.40
2022-12-27T05:13:08.487Z,63.20
2022-12-27T05:15:35.251Z,70.00
2022-12-27T05:18:02.169Z,70.00
2022-12-27T05:20:29.026Z,69.60
2022-12-27T05:23:14.442Z,68.80
2022-12-27T05:25:43.180Z,69.00
2022-12-27T05:28:11.670Z,63.40
2022-12-27T05:30:41.324Z,71.00
2022-12-27T05:33:08.870Z,70.00
2022-12-27T05:35:35.825Z,64.80
2022-12-27T05:38:03.055Z,69.20
2022-12-27T05:40:29.878Z,65.00
2022-12-27T05:42:59.605Z,64.80
2022-12-27T05:45:26.748Z,70.20
2022-12-27T05:47:53.590Z,70.60
2022-12-27T05:50:21.350Z,70.00
2022-12-27T05:52:50.656Z,65.00
2022-12-27T05:55:17.626Z,68.80
2022-12-27T05:57:44.450Z,70.20
2022-12-27T06:00:11.824Z,64.00
2022-12-27T06:02:42.679Z,64.00
2022-12-27T06:05:10.640Z,70.00
2022-12-27T06:07:38.440Z,64.00
2022-12-27T06:10:09.318Z,63.60
2022-12-27T06:12:36.653Z,69.60
2022-12-27T06:15:05.018Z,64.20
2022-12-27T06:17:32.092Z,65.80
2022-12-27T06:19:58.948Z,70.00
2022-12-27T06:22:25.718Z,65.20
2022-12-27T06:24:52.611Z,62.80
2022-12-27T06:27:19.473Z,68.60
2022-12-27T06:29:46.380Z,68.00
2022-12-27T06:32:13.467Z,68.00
2022-12-27T06:34:40.287Z,64.20
2022-12-27T06:37:07.090Z,63.00
2022-12-27T06:39:33.885Z,67.00
2022-12-27T06:42:00.643Z,69.80
2022-12-27T06:44:27.551Z,64.60
2022-12-27T06:46:54.354Z,62.80
2022-12-27T06:49:21.168Z,70.25
2022-12-27T06:51:52.613Z,65.20
2022-12-27T06:54:23.117Z,65.20
2022-12-27T06:56:49.994Z,64.00
2022-12-27T06:59:16.828Z,63.80
2022-12-27T07:01:43.727Z,69.00
2022-12-27T07:04:10.877Z,71.00
2022-12-27T07:06:38.234Z,65.20
2022-12-27T07:09:05.044Z,71.00
2022-12-27T07:11:36.396Z,67.00
2022-12-27T07:14:03.506Z,68.75
2022-12-27T07:16:30.918Z,70.75
2022-12-27T07:18:59.472Z,69.75
2022-12-27T07:21:28.692Z,66.00
2022-12-27T07:23:55.932Z,65.00
2022-12-27T07:26:30.091Z,71.00
2022-12-27T07:28:59.900Z,70.00
2022-12-27T07:31:30.212Z,71.25
2022-12-27T07:33:58.338Z,72.75
2022-12-27T07:36:28.739Z,66.40
2022-12-27T07:38:56.034Z,71.00
2022-12-27T07:41:24.756Z,73.75
2022-12-27T07:43:53.548Z,72.40
2022-12-27T07:46:23.842Z,69.20
2022-12-27T07:48:52.810Z,65.80
2022-12-27T07:51:19.615Z,67.80
2022-12-27T07:53:49.333Z,74.75
2022-12-27T07:56:26.615Z,70.80
2022-12-27T07:58:56.134Z,76.25
2022-12-27T08:01:24.538Z,70.20
2022-12-27T08:03:51.621Z,74.67
2022-12-27T08:06:31.625Z,74.00
2022-12-27T08:09:00.940Z,81.50
2022-12-27T08:11:27.730Z,71.75
2022-12-27T08:13:54.507Z,78.50
2022-12-27T08:16:24.342Z,79.25
2022-12-27T08:18:51.261Z,82.00
2022-12-27T08:21:18.382Z,82.25
2022-12-27T08:23:45.245Z,93.00
2022-12-27T08:26:12.178Z,84.50
2022-12-27T08:28:39.112Z,81.25
2022-12-27T08:31:08.310Z,82.50
2022-12-27T08:33:35.726Z,83.00
2022-12-27T08:36:53.636Z,80.50
2022-12-27T08:38:55.138Z,82.50
2022-12-27T08:41:22.374Z,84.25
2022-12-27T08:43:49.335Z,81.25
2022-12-27T08:46:16.215Z,76.25
2022-12-27T08:48:43.523Z,75.25
2022-12-27T08:51:13.699Z,72.00
2022-12-27T08:53:41.541Z,71.00
2022-12-27T08:56:08.360Z,79.25
2022-12-27T08:58:35.188Z,77.00
2022-12-27T09:01:09.754Z,71.25
2022-12-27T09:03:37.060Z,77.50
2022-12-27T09:06:15.849Z,82.25
2022-12-27T09:08:44.724Z,78.75
2022-12-27T09:11:26.553Z,70.00
2022-12-27T09:13:54.640Z,71.75
2022-12-27T09:16:24.742Z,70.00
2022-12-27T09:18:53.800Z,79.25
2022-12-27T09:21:22.742Z,69.25
2022-12-27T09:23:50.682Z,84.00
2022-12-27T09:26:20.278Z,83.00
2022-12-27T09:28:49.068Z,73.50
2022-12-27T09:31:17.913Z,83.67
2022-12-27T09:33:45.172Z,72.25
2022-12-27T09:36:21.287Z,70.75
2022-12-27T09:38:51.800Z,80.25
2022-12-27T09:41:59.026Z,71.50
2022-12-27T09:44:37.431Z,79.50
2022-12-27T09:47:27.272Z,82.50
2022-12-27T09:50:09.942Z,72.50
2022-12-27T09:52:42.036Z,84.25
2022-12-27T09:55:42.187Z,79.50
2022-12-27T09:58:46.295Z,93.00
2022-12-27T10:01:28.438Z,81.00
2022-12-27T10:03:55.344Z,86.25
2022-12-27T10:06:28.267Z,92.50
2022-12-27T10:08:58.146Z,91.00
2022-12-27T10:12:01.750Z,92.00
2022-12-27T10:14:37.416Z,93.00
2022-12-27T10:17:58.886Z,78.50
2022-12-27T10:21:03.142Z,83.50
2022-12-27T10:23:33.086Z,82.67
2022-12-27T10:26:06.729Z,80.75
2022-12-27T10:28:41.864Z,78.00
2022-12-27T10:31:21.121Z,79.75
2022-12-27T10:33:50.289Z,81.75
2022-12-27T10:36:24.358Z,83.00
2022-12-27T10:38:51.181Z,81.25
2022-12-27T10:41:23.765Z,83.00
2022-12-27T10:43:53.293Z,81.00
2022-12-27T10:46:32.784Z,80.00
2022-12-27T10:49:22.477Z,83.00
2022-12-27T10:51:52.445Z,83.50
2022-12-27T10:54:29.892Z,91.00
2022-12-27T10:57:15.610Z,79.25
2022-12-27T10:59:42.632Z,81.50
2022-12-27T11:02:20.186Z,82.00
2022-12-27T11:04:59.188Z,76.25
2022-12-27T11:07:31.932Z,81.25
2022-12-27T11:10:09.023Z,81.25
2022-12-27T11:12:36.980Z,80.00
2022-12-27T11:15:21.882Z,81.00
2022-12-27T11:17:58.328Z,91.00
2022-12-27T11:20:29.980Z,79.00
2022-12-27T11:23:09.580Z,84.75
2022-12-27T11:26:06.538Z,90.25
2022-12-27T11:28:38.335Z,80.00
2022-12-27T11:31:15.100Z,84.25
2022-12-27T11:33:53.751Z,93.00
2022-12-27T11:36:40.806Z,82.00
2022-12-27T11:39:28.409Z,90.25
2022-12-27T11:41:59.714Z,91.00
2022-12-27T11:44:39.144Z,82.00
2022-12-27T11:47:14.748Z,77.75
2022-12-27T11:50:04.677Z,71.00
2022-12-27T11:53:13.170Z,75.25
2022-12-27T11:56:04.803Z,74.50
2022-12-27T11:58:48.276Z,77.25
2022-12-27T12:01:27.929Z,77.25
2022-12-27T12:04:34.701Z,78.50
2022-12-27T12:07:01.499Z,75.75
2022-12-27T12:10:10.406Z,72.50
2022-12-27T12:13:08.280Z,76.50
2022-12-27T12:16:06.093Z,78.00
2022-12-27T12:18:56.243Z,79.75
2022-12-27T12:21:41.438Z,75.75
2022-12-27T12:24:33.143Z,67.75
2022-12-27T12:27:28.415Z,77.00
2022-12-27T12:30:13.558Z,71.00
2022-12-27T12:33:06.521Z,72.00
2022-12-27T12:35:39.330Z,79.25
2022-12-27T12:38:21.233Z,78.00
2022-12-27T12:41:06.394Z,90.00
2022-12-27T12:43:35.959Z,78.00
2022-12-27T12:46:19.677Z,72.00
2022-12-27T12:49:07.901Z,78.75
2022-12-27T12:51:53.157Z,80.75
2022-12-27T12:54:41.609Z,77.50
2022-12-27T12:57:30.126Z,70.25
2022-12-27T12:59:59.615Z,104.25
2022-12-27T13:03:08.915Z,105.00
2022-12-27T13:05:57.987Z,89.25
2022-12-27T13:08:39.069Z,95.25
2022-12-27T13:11:08.844Z,84.50
2022-12-27T13:13:50.637Z,76.25
2022-12-27T13:16:33.230Z,86.75
2022-12-27T13:19:37.940Z,79.50
2022-12-27T13:22:56.995Z,84.25
2022-12-27T13:25:38.317Z,75.50
2022-12-27T13:28:39.257Z,86.50
2022-12-27T13:31:15.476Z,87.00
2022-12-27T13:33:57.411Z,78.50
2022-12-27T13:36:56.331Z,80.33
2022-12-27T13:39:49.325Z,83.75
2022-12-27T13:42:51.439Z,93.00
2022-12-27T13:45:21.098Z,79.50
2022-12-27T13:47:53.651Z,72.25
2022-12-27T13:50:59.351Z,84.75
2022-12-27T13:54:17.379Z,82.00
2022-12-27T13:57:21.496Z,83.25
2022-12-27T14:00:09.409Z,79.00
2022-12-27T14:02:55.054Z,77.25
2022-12-27T14:06:00.978Z,77.50
2022-12-27T14:08:33.859Z,82.00
2022-12-27T14:11:01.662Z,76.33
2022-12-27T14:13:42.527Z,90.25
2022-12-27T14:16:27.912Z,79.00
2022-12-27T14:19:07.607Z,85.00
2022-12-27T14:22:02.589Z,75.67
2022-12-27T14:24:40.261Z,77.50
2022-12-27T14:27:40.787Z,79.00
2022-12-27T14:30:25.668Z,74.67
2022-12-27T14:33:10.238Z,78.25
2022-12-27T14:36:28.132Z,78.33
2022-12-27T14:39:16.113Z,81.00
2022-12-27T14:41:57.819Z,84.00
2022-12-27T14:44:58.658Z,83.00
2022-12-27T14:48:05.537Z,83.00
2022-12-27T14:50:56.447Z,82.75
2022-12-27T14:53:54.034Z,89.25
2022-12-27T14:56:48.332Z,79.00
2022-12-27T14:59:20.743Z,78.50
2022-12-27T15:02:27.040Z,89.25
2022-12-27T15:05:15.977Z,80.75
2022-12-27T15:08:07.188Z,87.00
2022-12-27T15:10:47.571Z,78.00
2022-12-27T15:13:32.133Z,79.50
2022-12-27T15:16:33.722Z,78.00
2022-12-27T15:19:16.541Z,74.33
2022-12-27T15:22:08.712Z,76.25
2022-12-27T15:24:42.167Z,73.25
2022-12-27T15:27:19.493Z,77.50
2022-12-27T15:30:19.649Z,79.50
2022-12-27T15:32:55.172Z,77.00
2022-12-27T15:35:30.618Z,87.75
2022-12-27T15:37:59.210Z,76.75
2022-12-27T15:40:35.280Z,74.00
2022-12-27T15:43:22.421Z,73.67
2022-12-27T15:46:25.229Z,71.67
2022-12-27T15:48:57.859Z,74.33
2022-12-27T15:51:49.703Z,77.75
2022-12-27T15:54:34.582Z,67.75
2022-12-27T15:57:33.336Z,74.00
2022-12-27T16:00:09.010Z,75.33
2022-12-27T16:02:42.455Z,75.67
2022-12-27T16:05:09.340Z,66.75
2022-12-27T16:07:48.158Z,76.33
2022-12-27T16:10:49.139Z,77.00
2022-12-27T16:13:15.910Z,85.00
2022-12-27T16:15:49.653Z,71.67
2022-12-27T16:18:19.532Z,73.00
2022-12-27T16:21:00.706Z,86.00
2022-12-27T16:23:47.733Z,73.75
2022-12-27T16:26:28.282Z,75.33
2022-12-27T16:29:16.911Z,70.75
2022-12-27T16:31:50.625Z,74.33
2022-12-27T16:34:23.295Z,73.75
2022-12-27T16:36:53.258Z,86.50
2022-12-27T16:39:38.538Z,76.00
2022-12-27T16:42:08.149Z,73.67
2022-12-27T16:44:50.218Z,72.00
2022-12-27T16:47:35.140Z,63.25
2022-12-27T16:50:26.519Z,71.33
2022-12-27T16:53:11.354Z,74.33
2022-12-27T16:56:14.799Z,72.00
2022-12-27T16:58:42.363Z,73.00
2022-12-27T17:01:18.643Z,75.00
2022-12-27T17:03:49.249Z,64.00
2022-12-27T17:06:33.483Z,71.75
2022-12-27T17:09:10.440Z,75.00
2022-12-27T17:11:52.661Z,72.25
2022-12-27T17:14:19.427Z,70.75
2022-12-27T17:16:50.196Z,69.75
2022-12-27T17:19:52.055Z,72.25
2022-12-27T17:22:20.909Z,70.75
2022-12-27T17:24:48.890Z,65.00
2022-12-27T17:27:37.280Z,65.00
2022-12-27T17:30:17.695Z,74.25
2022-12-27T17:33:03.756Z,70.50
2022-12-27T17:35:59.954Z,63.50
2022-12-27T17:38:26.728Z,74.00
2022-12-27T17:41:48.977Z,74.50
2022-12-27T17:44:40.597Z,72.00
2022-12-27T17:47:15.804Z,74.33
2022-12-27T17:49:43.337Z,65.50
2022-12-27T17:52:38.031Z,75.33
2022-12-27T17:55:44.851Z,76.50
2022-12-27T17:58:16.203Z,73.75
2022-12-27T18:00:59.378Z,71.00
2022-12-27T18:03:35.232Z,68.00
2022-12-27T18:06:02.378Z,66.25
2022-12-27T18:08:34.120Z,73.67
2022-12-27T18:11:03.772Z,66.25
2022-12-27T18:13:34.535Z,74.00
2022-12-27T18:16:14.678Z,73.33
2022-12-27T18:18:47.076Z,72.33
2022-12-27T18:21:25.634Z,67.25
2022-12-27T18:23:53.784Z,73.50
2022-12-27T18:26:31.696Z,79.33
2022-12-27T18:28:59.035Z,77.33
2022-12-27T18:31:36.290Z,94.50
2022-12-27T18:34:17.513Z,124.50
2022-12-27T18:36:52.685Z,106.00
2022-12-27T18:39:33.326Z,92.25
2022-12-27T18:42:04.644Z,85.00
2022-12-27T18:44:44.476Z,85.25
2022-12-27T18:47:22.428Z,84.75
2022-12-27T18:49:58.462Z,74.75
2022-12-27T18:52:39.736Z,77.00
2022-12-27T18:55:20.152Z,81.00
2022-12-27T18:57:48.408Z,76.75
2022-12-27T19:00:26.739Z,72.75
2022-12-27T19:03:11.678Z,72.25
2022-12-27T19:05:39.090Z,75.50
2022-12-27T19:08:14.556Z,76.75
2022-12-27T19:10:50.701Z,73.75
2022-12-27T19:13:23.502Z,75.00
2022-12-27T19:15:51.433Z,77.50
2022-12-27T19:18:25.631Z,74.00
2022-12-27T19:20:58.616Z,76.33
2022-12-27T19:23:38.397Z,69.50
2022-12-27T19:26:05.272Z,75.25
2022-12-27T19:28:33.813Z,71.25
2022-12-27T19:31:22.118Z,77.33
2022-12-27T19:33:55.750Z,68.75
2022-12-27T19:36:33.672Z,76.50
2022-12-27T19:39:01.334Z,70.25
2022-12-27T19:41:28.303Z,79.25
2022-12-27T19:43:56.407Z,82.33
2022-12-27T19:46:30.457Z,78.75
2022-12-27T19:51:45.350Z,76.33
2022-12-27T19:54:21.718Z,79.75
2022-12-27T19:56:49.711Z,70.75
2022-12-27T19:59:26.153Z,74.67
2022-12-27T20:01:53.481Z,79.75
2022-12-27T20:04:20.554Z,72.75
2022-12-27T20:06:49.235Z,70.25
2022-12-27T20:09:19.321Z,79.50
2022-12-27T20:11:48.283Z,77.00
2022-12-27T20:14:17.467Z,76.67
2022-12-27T20:16:45.589Z,92.00
2022-12-27T20:19:16.256Z,73.75
2022-12-27T20:21:43.125Z,77.50
2022-12-27T20:24:13.324Z,79.00
2022-12-27T20:26:40.739Z,76.00
2022-12-27T20:29:07.702Z,82.00
2022-12-27T20:31:43.816Z,70.25
2022-12-27T20:34:12.098Z,76.25
2022-12-27T20:36:39.010Z,78.33
2022-12-27T20:39:07.373Z,73.25
2022-12-27T20:41:34.949Z,80.00
2022-12-27T20:44:01.997Z,81.25
2022-12-27T20:46:28.952Z,74.00
2022-12-27T20:48:56.568Z,78.33
2022-12-27T20:51:27.318Z,77.67
2022-12-27T20:53:59.157Z,77.75
2022-12-27T20:56:26.023Z,79.00
2022-12-27T20:58:53.251Z,73.50
2022-12-27T21:01:23.468Z,78.50
2022-12-27T21:03:50.909Z,77.25
2022-12-27T21:06:21.052Z,78.67
2022-12-27T21:08:54.418Z,73.50
2022-12-27T21:11:27.178Z,73.00
2022-12-27T21:13:55.115Z,79.00
2022-12-27T21:16:24.377Z,71.25
2022-12-27T21:18:51.629Z,81.25
2022-12-27T21:21:22.626Z,74.00
2022-12-27T21:23:50.987Z,78.67
2022-12-27T21:26:20.580Z,70.75
2022-12-27T21:28:48.058Z,81.75
2022-12-27T21:31:16.375Z,76.00
2022-12-27T21:33:43.601Z,70.25
2022-12-27T21:36:25.348Z,75.25
2022-12-27T21:38:53.173Z,73.00
2022-12-27T21:41:22.673Z,77.33
2022-12-27T21:43:50.188Z,77.67
2022-12-27T21:46:22.535Z,78.00
2022-12-27T21:48:56.416Z,79.00
2022-12-27T21:51:23.563Z,73.75
2022-12-27T21:53:50.746Z,69.00
2022-12-27T21:56:18.204Z,77.25
2022-12-27T21:58:45.923Z,77.00
2022-12-27T22:01:19.004Z,70.75
2022-12-27T22:03:48.362Z,76.33
2022-12-27T22:06:37.154Z,81.00
2022-12-27T22:09:09.376Z,74.25
2022-12-27T22:11:38.365Z,77.25
2022-12-27T22:14:05.972Z,74.25
2022-12-27T22:16:35.589Z,77.75
2022-12-27T22:19:05.031Z,74.25
2022-12-27T22:21:34.664Z,71.50
2022-12-27T22:24:03.208Z,78.25
2022-12-27T22:26:33.156Z,74.50
2022-12-27T22:29:00.155Z,67.25
2022-12-27T22:31:35.154Z,75.33
2022-12-27T22:34:03.872Z,70.25
2022-12-27T22:36:31.352Z,77.50
2022-12-27T22:38:59.552Z,90.00
2022-12-27T22:41:28.947Z,67.75
2022-12-27T22:43:55.756Z,70.00
2022-12-27T22:46:23.671Z,77.00
2022-12-27T22:48:52.111Z,79.67
2022-12-27T22:51:26.061Z,61.25
2022-12-27T22:53:54.182Z,76.33
2022-12-27T22:56:26.477Z,75.33
2022-12-27T22:58:53.663Z,74.67
2022-12-27T23:01:31.699Z,70.50
2022-12-27T23:04:00.836Z,78.25
2022-12-27T23:06:30.032Z,76.25
2022-12-27T23:08:57.159Z,74.00
2022-12-27T23:11:27.371Z,72.00
2022-12-27T23:13:57.174Z,76.33
2022-12-27T23:16:24.570Z,70.00
2022-12-27T23:18:52.610Z,67.25
2022-12-27T23:21:24.072Z,75.33
2022-12-27T23:23:52.332Z,74.50
2022-12-27T23:26:21.961Z,78.00
2022-12-27T23:28:50.816Z,74.00
2022-12-27T23:31:20.019Z,67.25
2022-12-27T23:33:47.543Z,67.75
2022-12-27T23:36:15.233Z,71.50
2022-12-27T23:38:42.905Z,68.00
2022-12-27T23:41:14.949Z,69.00
2022-12-27T23:43:56.981Z,73.25
2022-12-27T23:46:32.268Z,75.67
2022-12-27T23:49:02.072Z,74.67
2022-12-27T23:51:29.921Z,70.75
2022-12-27T23:53:57.176Z,68.50
2022-12-27T23:56:27.062Z,68.00
2022-12-27T23:58:56.427Z,68.25
